createdAt,value
2023-01-20T20:37:12.477Z,4.57
2023-01-20T20:39:41.974Z,4.59
2023-01-20T20:42:08.735Z,4.59
2023-01-20T20:44:35.767Z,4.63
2023-01-20T20:47:02.795Z,4.60
2023-01-20T20:49:31.492Z,4.54
2023-01-20T20:52:00.730Z,4.46
2023-01-20T20:54:27.757Z,4.38
2023-01-20T20:56:54.895Z,4.33
2023-01-20T20:59:24.827Z,4.29
2023-01-20T21:01:52.609Z,4.24
2023-01-20T21:04:19.491Z,4.13
2023-01-20T21:06:46.302Z,4.07
2023-01-20T21:09:13.240Z,4.02
2023-01-20T21:11:42.936Z,3.95
2023-01-20T21:14:10.170Z,3.91
2023-01-20T21:16:37.928Z,3.88
2023-01-20T21:19:05.250Z,3.88
2023-01-20T21:21:35.543Z,3.85
2023-01-20T21:24:02.669Z,3.83
2023-01-20T21:26:30.721Z,3.81
2023-01-20T21:29:01.852Z,3.77
2023-01-20T21:31:31.076Z,3.74
2023-01-20T21:33:58.923Z,3.72
2023-01-20T21:36:27.695Z,3.72
2023-01-20T21:38:56.784Z,3.70
2023-01-20T21:41:23.779Z,3.70
2023-01-20T21:44:09.153Z,3.66
2023-01-20T21:46:40.536Z,3.61
2023-01-20T21:49:26.726Z,3.58
2023-01-20T21:52:29.894Z,3.56
2023-01-20T21:54:56.771Z,3.51
2023-01-20T21:57:24.572Z,3.46
2023-01-20T21:59:52.370Z,3.44
2023-01-20T22:02:19.387Z,3.42
2023-01-20T22:04:47.198Z,3.39
2023-01-20T22:07:15.665Z,3.35
2023-01-20T22:09:42.497Z,3.31
2023-01-20T22:12:10.469Z,3.25
2023-01-20T22:14:38.316Z,3.26
2023-01-20T22:17:06.656Z,3.29
2023-01-20T22:19:33.769Z,3.22
2023-01-20T22:22:01.429Z,3.14
2023-01-20T22:24:28.750Z,3.18
2023-01-20T22:26:55.771Z,3.16
2023-01-20T22:29:22.797Z,3.13
2023-01-20T22:31:56.032Z,3.06
2023-01-20T22:34:23.303Z,3.06
2023-01-20T22:36:50.147Z,3.05
2023-01-20T22:39:16.973Z,3.04
2023-01-20T22:41:43.928Z,2.98
2023-01-20T22:44:13.087Z,3.02
2023-01-20T22:46:39.904Z,2.97
2023-01-20T22:49:06.768Z,2.89
2023-01-20T22:51:33.553Z,2.89
2023-01-20T22:54:01.442Z,2.86
2023-01-20T22:56:31.668Z,2.83
2023-01-20T22:58:59.890Z,2.88
2023-01-20T23:01:30.549Z,2.82
2023-01-20T23:04:02.032Z,2.71
2023-01-20T23:06:32.631Z,2.72
2023-01-20T23:09:01.304Z,2.72
2023-01-20T23:11:28.438Z,2.69
2023-01-20T23:13:55.372Z,2.66
2023-01-20T23:16:22.944Z,2.63
2023-01-20T23:18:51.019Z,2.59
2023-01-20T23:21:21.097Z,2.52
2023-01-20T23:23:55.010Z,2.53
2023-01-20T23:26:28.462Z,2.57
2023-01-20T23:28:56.198Z,2.58
2023-01-20T23:31:24.890Z,2.57
2023-01-20T23:33:55.777Z,2.52
2023-01-20T23:36:24.766Z,2.51
2023-01-20T23:38:56.143Z,2.57
2023-01-20T23:41:26.066Z,2.52
2023-01-20T23:43:52.986Z,2.50
2023-01-20T23:46:19.859Z,2.52
2023-01-20T23:48:47.457Z,2.50
2023-01-20T23:51:14.802Z,2.41
2023-01-20T23:53:44.419Z,2.37
2023-01-20T23:56:18.195Z,2.37
2023-01-20T23:58:47.193Z,2.37
